createdAt,value
2022-12-24T00:02:08.219Z,98938.25
2022-12-24T00:07:09.895Z,98923.28
2022-12-24T00:12:11.633Z,98924.00
2022-12-24T00:17:13.133Z,98917.34
2022-12-24T00:22:14.622Z,98920.91
2022-12-24T00:27:16.321Z,98935.75
2022-12-24T00:32:17.739Z,98909.56
2022-12-24T00:37:19.392Z,98920.31
2022-12-24T00:42:20.945Z,98929.34
2022-12-24T00:47:22.360Z,98929.81
2022-12-24T00:52:23.831Z,98936.03
2022-12-24T00:57:25.343Z,98944.19
2022-12-24T01:02:26.951Z,98956.63
2022-12-24T01:07:28.573Z,98945.47
2022-12-24T01:12:30.045Z,98941.59
2022-12-24T01:17:33.111Z,98949.84
2022-12-24T01:22:35.064Z,98932.84
2022-12-24T01:27:36.572Z,98942.19
2022-12-24T01:32:38.015Z,98930.56
2022-12-24T01:37:39.681Z,98929.75
2022-12-24T01:43:03.741Z,98914.16
2022-12-24T01:48:09.502Z,98932.44
2022-12-24T01:53:13.732Z,98952.97
2022-12-24T01:58:17.718Z,98946.75
2022-12-24T02:03:19.938Z,98934.25
2022-12-24T02:08:22.146Z,98917.25
2022-12-24T02:13:23.594Z,98926.78
2022-12-24T02:18:46.329Z,98927.78
2022-12-24T02:24:21.778Z,98918.00
2022-12-24T02:29:51.938Z,98913.47
2022-12-24T02:35:10.089Z,98914.34
2022-12-24T02:40:26.976Z,98921.56
2022-12-24T02:45:32.064Z,98912.47
2022-12-24T02:50:33.509Z,98926.47
2022-12-24T02:56:04.052Z,98926.19
2022-12-24T03:01:22.022Z,98920.88
2022-12-24T03:06:38.779Z,98928.00
2022-12-24T03:11:48.998Z,98928.22
2022-12-24T03:16:50.591Z,98929.94
2022-12-24T03:21:54.456Z,98931.75
2022-12-24T03:26:56.674Z,98929.44
2022-12-24T03:32:04.022Z,98925.63
2022-12-24T03:37:05.559Z,98931.03
2022-12-24T03:42:06.988Z,98943.16
2022-12-24T03:47:08.430Z,98935.28
2022-12-24T03:52:09.875Z,98941.31
2022-12-24T03:57:11.341Z,98948.72
2022-12-24T04:02:12.941Z,98952.72
2022-12-24T04:07:14.586Z,98954.50
2022-12-24T04:12:16.113Z,98954.50
2022-12-24T04:17:17.955Z,98949.97
2022-12-24T04:22:19.460Z,98947.59
2022-12-24T04:27:25.205Z,98961.91
2022-12-24T04:32:29.793Z,98961.06
2022-12-24T04:37:31.248Z,98961.06
2022-12-24T04:42:32.664Z,98961.91
2022-12-24T04:47:34.115Z,98971.97
2022-12-24T04:52:35.637Z,98968.31
2022-12-24T04:57:37.929Z,98965.03
2022-12-24T05:02:39.612Z,98966.00
2022-12-24T05:07:41.181Z,98984.59
2022-12-24T05:12:42.605Z,98984.00
2022-12-24T05:17:44.112Z,98978.34
2022-12-24T05:23:03.910Z,98984.44
2022-12-24T05:28:05.687Z,99002.31
2022-12-24T05:33:07.110Z,99001.63
2022-12-24T05:38:08.840Z,99010.66
2022-12-24T05:43:10.303Z,99018.03
2022-12-24T05:48:11.816Z,99018.31
2022-12-24T05:53:13.235Z,99025.69
2022-12-24T05:58:15.238Z,99030.78
2022-12-24T06:03:16.667Z,99034.63
2022-12-24T06:08:18.354Z,99041.00
2022-12-24T06:13:19.765Z,99042.84
2022-12-24T06:18:21.362Z,99042.16
2022-12-24T06:23:24.000Z,99057.31
2022-12-24T06:28:25.435Z,99057.75
2022-12-24T06:33:27.320Z,99066.97
2022-12-24T06:38:31.577Z,99080.16
2022-12-24T06:43:36.150Z,99084.97
2022-12-24T06:48:37.622Z,99100.19
2022-12-24T06:53:39.200Z,99108.09
2022-12-24T06:58:41.547Z,99118.75
2022-12-24T07:03:43.029Z,99124.41
2022-12-24T07:08:44.508Z,99143.00
2022-12-24T07:13:47.101Z,99154.22
2022-12-24T07:18:48.543Z,99153.50
2022-12-24T07:23:49.959Z,99176.63
2022-12-24T07:28:51.377Z,99199.31
2022-12-24T07:33:52.801Z,99214.94
2022-12-24T07:38:54.732Z,99223.69
2022-12-24T07:43:56.225Z,99232.94
2022-12-24T07:48:57.681Z,99243.84
2022-12-24T07:53:59.529Z,99252.22
2022-12-24T07:59:00.980Z,99264.31
2022-12-24T08:04:02.538Z,99274.22
2022-12-24T08:09:04.363Z,99280.75
2022-12-24T08:14:05.802Z,99291.53
2022-12-24T08:19:07.204Z,99307.03
2022-12-24T08:24:08.726Z,99309.06
2022-12-24T08:29:10.158Z,99322.94
2022-12-24T08:34:11.708Z,99332.91
2022-12-24T08:39:13.481Z,99335.81
2022-12-24T08:44:14.922Z,99359.91
2022-12-24T08:49:16.446Z,99367.47
2022-12-24T08:54:17.971Z,99368.31
2022-12-24T08:59:19.382Z,99377.88
2022-12-24T09:04:20.863Z,99388.13
2022-12-24T09:09:22.349Z,99402.16
2022-12-24T09:14:23.796Z,99396.34
2022-12-24T09:19:25.431Z,99392.34
2022-12-24T09:24:26.858Z,99399.31
2022-12-24T09:29:28.631Z,99418.44
2022-12-24T09:34:30.918Z,99409.66
2022-12-24T09:39:32.924Z,99425.94
2022-12-24T09:44:59.009Z,99435.66
2022-12-24T09:50:04.092Z,99445.50
2022-12-24T09:55:19.821Z,99466.13
2022-12-24T10:00:29.265Z,99469.22
2022-12-24T10:05:45.351Z,99472.84
2022-12-24T10:10:52.950Z,99468.91
2022-12-24T10:16:08.453Z,99489.28
2022-12-24T10:21:15.861Z,99506.38
2022-12-24T10:26:46.236Z,99510.44
2022-12-24T10:31:58.516Z,99515.50
2022-12-24T10:37:02.899Z,99522.19
2022-12-24T10:42:07.140Z,99534.06
2022-12-24T10:47:10.610Z,99536.31
2022-12-24T10:52:15.453Z,99553.47
2022-12-24T10:57:26.268Z,99558.03
2022-12-24T11:02:34.544Z,99562.22
2022-12-24T11:07:36.123Z,99568.72
2022-12-24T11:12:40.919Z,99564.09
2022-12-24T11:17:42.445Z,99579.91
2022-12-24T11:22:49.730Z,99576.75
2022-12-24T11:27:51.833Z,99594.59
2022-12-24T11:33:18.151Z,99588.25
2022-12-24T11:38:23.087Z,99595.56
2022-12-24T11:43:24.670Z,99613.19
2022-12-24T11:48:34.519Z,99607.03
2022-12-24T11:54:00.818Z,99625.19
2022-12-24T11:59:26.179Z,99633.22
2022-12-24T12:04:30.699Z,99631.97
2022-12-24T12:09:40.635Z,99627.56
2022-12-24T12:14:50.415Z,99636.13
2022-12-24T12:20:00.694Z,99646.19
2022-12-24T12:25:05.206Z,99654.53
2022-12-24T12:30:15.531Z,99667.50
2022-12-24T12:35:35.963Z,99671.84
2022-12-24T12:40:55.995Z,99678.69
2022-12-24T12:46:25.596Z,99665.72
2022-12-24T12:51:54.296Z,99679.19
2022-12-24T12:57:01.738Z,99680.53
2022-12-24T13:02:17.692Z,99692.19
2022-12-24T13:07:37.490Z,99700.50
2022-12-24T13:13:08.359Z,99717.63
2022-12-24T13:18:34.384Z,99717.84
2022-12-24T13:23:35.917Z,99727.44
2022-12-24T13:28:37.460Z,99729.72
2022-12-24T13:33:38.943Z,99738.84
2022-12-24T13:38:50.825Z,99742.63
2022-12-24T13:44:07.988Z,99753.97
2022-12-24T13:49:20.037Z,99750.03
2022-12-24T13:54:25.694Z,99758.34
2022-12-24T13:59:38.971Z,99752.97
2022-12-24T14:04:42.273Z,99758.44
2022-12-24T14:09:49.950Z,99771.06
2022-12-24T14:14:51.399Z,99775.13
2022-12-24T14:19:56.456Z,99784.56
2022-12-24T14:25:01.577Z,99785.06
2022-12-24T14:30:16.087Z,99779.16
2022-12-24T14:35:19.164Z,99800.50
2022-12-24T14:40:26.312Z,99805.19
2022-12-24T14:45:44.499Z,99803.94
2022-12-24T14:51:09.989Z,99837.28
2022-12-24T14:56:16.908Z,99844.38
2022-12-24T15:01:23.331Z,99848.91
2022-12-24T15:06:24.950Z,99856.38
2022-12-24T15:11:26.617Z,99872.28
2022-12-24T15:16:37.052Z,99884.09
2022-12-24T15:21:42.179Z,99899.78
2022-12-24T15:26:44.817Z,99898.19
2022-12-24T15:31:46.266Z,99913.09
2022-12-24T15:36:47.977Z,99906.97
2022-12-24T15:42:08.914Z,99911.38
2022-12-24T15:47:17.437Z,99905.50
2022-12-24T15:52:24.611Z,99901.25
2022-12-24T15:57:33.583Z,99920.97
2022-12-24T16:02:39.101Z,99920.63
2022-12-24T16:08:07.128Z,99929.19
2022-12-24T16:13:22.373Z,99931.78
2022-12-24T16:18:31.886Z,99936.28
2022-12-24T16:23:45.529Z,99944.72
2022-12-24T16:28:47.502Z,99951.63
2022-12-24T16:34:01.314Z,99966.78
2022-12-24T16:39:21.277Z,99975.34
2022-12-24T16:44:22.821Z,99981.13
2022-12-24T16:49:24.304Z,99988.16
2022-12-24T16:54:25.849Z,99991.31
2022-12-24T16:59:27.385Z,99998.59
2022-12-24T17:04:31.569Z,100003.53
2022-12-24T17:09:33.100Z,100013.50
2022-12-24T17:14:35.438Z,100004.44
2022-12-24T17:19:36.878Z,100004.22
2022-12-24T17:24:38.341Z,100008.66
2022-12-24T17:29:40.073Z,100022.69
2022-12-24T17:34:41.557Z,100015.44
2022-12-24T17:39:43.063Z,100028.19
2022-12-24T17:44:44.901Z,100040.28
2022-12-24T17:49:46.316Z,100042.84
2022-12-24T17:54:47.773Z,100042.63
2022-12-24T17:59:49.344Z,100051.69
2022-12-24T18:04:50.773Z,100054.66
2022-12-24T18:09:52.473Z,100070.84
2022-12-24T18:14:53.958Z,100078.56
2022-12-24T18:19:55.745Z,100093.41
2022-12-24T18:24:57.159Z,100100.50
2022-12-24T18:29:58.595Z,100111.84
2022-12-24T18:35:00.018Z,100097.75
2022-12-24T18:40:02.252Z,100094.75
2022-12-24T18:45:04.630Z,100097.00
2022-12-24T18:50:07.112Z,100098.03
2022-12-24T18:55:09.161Z,100098.56
2022-12-24T19:00:11.288Z,100107.19
2022-12-24T19:05:15.162Z,100112.94
2022-12-24T19:10:16.698Z,100114.31
2022-12-24T19:15:18.192Z,100124.25
2022-12-24T19:20:19.605Z,100134.59
2022-12-24T19:25:21.101Z,100144.50
2022-12-24T19:30:22.559Z,100151.63
2022-12-24T19:35:23.968Z,100164.75
2022-12-24T19:40:26.061Z,100165.81
2022-12-24T19:45:27.566Z,100166.06
2022-12-24T19:50:29.950Z,100147.19
2022-12-24T19:55:31.379Z,100161.22
2022-12-24T20:00:32.869Z,100169.34
2022-12-24T20:05:34.370Z,100179.91
2022-12-24T20:10:40.418Z,100175.72
2022-12-24T20:15:43.674Z,100193.69
2022-12-24T20:20:45.110Z,100201.88
2022-12-24T20:25:46.563Z,100211.53
2022-12-24T20:30:47.992Z,100226.47
2022-12-24T20:35:49.446Z,100227.97
2022-12-24T20:40:56.269Z,100220.88
2022-12-24T20:45:58.850Z,100229.88
2022-12-24T20:51:00.433Z,100222.78
2022-12-24T20:56:02.578Z,100227.97
2022-12-24T21:01:24.245Z,100217.91
2022-12-24T21:06:26.159Z,100232.56
2022-12-24T21:11:46.035Z,100235.16
2022-12-24T21:16:48.343Z,100232.41
2022-12-24T21:21:50.411Z,100237.03
2022-12-24T21:26:51.838Z,100235.19
2022-12-24T21:31:53.306Z,100236.38
2022-12-24T21:36:54.889Z,100248.84
2022-12-24T21:41:56.951Z,100235.81
2022-12-24T21:46:58.355Z,100251.19
2022-12-24T21:51:59.983Z,100249.47
2022-12-24T21:57:23.077Z,100255.41
2022-12-24T22:02:28.304Z,100262.09
2022-12-24T22:07:49.136Z,100252.84
2022-12-24T22:12:50.562Z,100266.06
2022-12-24T22:17:52.058Z,100265.13
2022-12-24T22:22:53.607Z,100258.00
2022-12-24T22:27:55.036Z,100271.47
2022-12-24T22:32:57.555Z,100256.72
2022-12-24T22:38:00.464Z,100256.47
2022-12-24T22:43:02.188Z,100269.28
2022-12-24T22:48:03.784Z,100270.38
2022-12-24T22:53:05.189Z,100283.56
2022-12-24T22:58:06.667Z,100292.09
2022-12-24T23:03:08.873Z,100290.25
2022-12-24T23:08:12.805Z,100291.03
2022-12-24T23:13:32.733Z,100295.31
2022-12-24T23:18:34.401Z,100303.84
2022-12-24T23:23:37.404Z,100313.09
2022-12-24T23:28:39.859Z,100318.66
2022-12-24T23:33:41.664Z,100333.09
2022-12-24T23:38:43.338Z,100335.00
2022-12-24T23:43:45.769Z,100338.75
2022-12-24T23:48:47.996Z,100350.94
2022-12-24T23:53:50.459Z,100359.38
2022-12-24T23:58:52.248Z,100358.91
